Weather at La Jolla Center I Helipad

Public forecast

Using degrees Fahrenheit for public forecast. Weather courtesy of forecast.io.

Closest aviation weather report (METAR) to La Jolla Center I Helipad

Closest report is Miramar Marine Corps Air Station - Mitscher Field, 3.2 nm (6.0 km) E.

2024/07/17 10:55 (retrieved 15 minutes ago)

KNKX 171055Z 00000KT 8SM OVC011 20/17 A2995 RMK AO2 SLP136 T02000172

Closest aviation forecast (TAF) to La Jolla Center I Helipad

Closest forecast is San Diego International Airport, 8.5 nm (15.8 km) S.

2024/07/17 10:48 Ammendment (retrieved 22 minutes ago)

TAF AMD KSAN 170945Z 1710/1812 VRB03KT P6SM OVC014 FM171800 26009KT P6SM SCT015 FM180200 24005KT P6SM SCT015 FM180500 26005KT P6SM OVC012